createdAt,value
2017-05-11T00:00:05.939Z,18.38
2017-05-11T00:00:19.071Z,18.44
2017-05-11T00:00:32.202Z,18.35
2017-05-11T00:00:44.843Z,18.36
2017-05-11T00:00:58.004Z,18.42
2017-05-11T00:01:11.221Z,18.39
2017-05-11T00:01:24.412Z,18.42
2017-05-11T00:01:37.554Z,18.42
2017-05-11T00:01:50.681Z,18.42
2017-05-11T00:02:03.341Z,18.36
2017-05-11T00:02:16.473Z,18.39
2017-05-11T00:02:29.666Z,18.39
2017-05-11T00:02:42.859Z,18.47
2017-05-11T00:02:55.971Z,18.36
2017-05-11T00:03:09.144Z,18.42
2017-05-11T00:03:22.511Z,18.41
2017-05-11T00:03:35.737Z,18.45
2017-05-11T00:03:48.895Z,18.39
2017-05-11T00:04:02.078Z,18.45
2017-05-11T00:04:14.795Z,18.47
2017-05-11T00:04:27.406Z,18.39
2017-05-11T00:04:40.559Z,18.47
2017-05-11T00:04:53.710Z,18.42
2017-05-11T00:05:06.855Z,18.42
2017-05-11T00:05:20.077Z,18.41
2017-05-11T00:05:32.721Z,18.38
2017-05-11T00:05:45.973Z,18.45
2017-05-11T00:05:58.637Z,18.42
2017-05-11T00:06:11.750Z,18.45
2017-05-11T00:06:24.958Z,18.42
2017-05-11T00:06:38.175Z,18.41
2017-05-11T00:06:51.320Z,18.44
2017-05-11T00:07:04.496Z,18.39
2017-05-11T00:07:17.161Z,18.42
2017-05-11T00:07:30.352Z,18.42
2017-05-11T00:07:43.453Z,18.49
2017-05-11T00:07:55.607Z,18.45
2017-05-11T00:08:08.895Z,18.44
2017-05-11T00:08:22.045Z,18.42
2017-05-11T00:08:34.723Z,18.44
2017-05-11T00:08:47.835Z,18.44
2017-05-11T00:09:00.990Z,18.41
2017-05-11T00:09:14.190Z,18.44
2017-05-11T00:09:27.354Z,18.47
2017-05-11T00:09:40.524Z,18.42
2017-05-11T00:09:53.683Z,18.45
2017-05-11T00:10:06.815Z,18.49
2017-05-11T00:10:18.911Z,18.57
2017-05-11T00:10:32.103Z,18.39
2017-05-11T00:10:45.308Z,18.51
2017-05-11T00:10:57.978Z,18.5
2017-05-11T00:11:10.143Z,18.42
2017-05-11T00:11:23.275Z,18.45
2017-05-11T00:11:36.494Z,18.44
2017-05-11T00:11:49.662Z,18.47
2017-05-11T00:12:02.833Z,18.47
2017-05-11T00:12:16.028Z,18.45
2017-05-11T00:12:28.631Z,18.42
2017-05-11T00:12:41.763Z,18.45
2017-05-11T00:12:54.943Z,18.45
2017-05-11T00:13:08.152Z,18.41
2017-05-11T00:13:21.313Z,18.41
2017-05-11T00:13:34.040Z,18.47
2017-05-11T00:13:46.672Z,18.42
2017-05-11T00:13:59.827Z,18.45
2017-05-11T00:14:12.458Z,18.42
2017-05-11T00:14:25.610Z,18.5
2017-05-11T00:14:38.264Z,18.45
2017-05-11T00:14:51.359Z,18.45
2017-05-11T00:15:04.590Z,18.42
2017-05-11T00:15:17.704Z,18.38
2017-05-11T00:15:30.906Z,18.38
2017-05-11T00:15:44.151Z,18.42
2017-05-11T00:15:57.403Z,18.45
2017-05-11T00:16:10.605Z,18.42
2017-05-11T00:16:23.755Z,18.41
2017-05-11T00:16:36.900Z,18.41
2017-05-11T00:16:49.602Z,18.41
2017-05-11T00:17:02.830Z,18.51
2017-05-11T00:17:15.534Z,18.49
2017-05-11T00:17:28.197Z,18.44
2017-05-11T00:17:41.380Z,18.41
2017-05-11T00:17:54.025Z,18.39
2017-05-11T00:18:07.117Z,18.42
2017-05-11T00:18:20.287Z,18.38
2017-05-11T00:18:33.811Z,18.42
2017-05-11T00:18:46.480Z,18.38
2017-05-11T00:18:59.651Z,18.41
2017-05-11T00:19:12.277Z,18.34
2017-05-11T00:19:25.399Z,18.44
2017-05-11T00:19:38.515Z,18.41
2017-05-11T00:19:51.668Z,18.41
2017-05-11T00:20:04.803Z,18.36
2017-05-11T00:20:17.948Z,18.35
2017-05-11T00:20:31.101Z,18.32
2017-05-11T00:20:44.261Z,18.31
2017-05-11T00:20:56.983Z,18.34
2017-05-11T00:21:10.148Z,18.36
2017-05-11T00:21:23.273Z,18.35
2017-05-11T00:21:36.455Z,18.34
2017-05-11T00:21:49.161Z,18.34
2017-05-11T00:22:02.378Z,18.35
2017-05-11T00:22:15.013Z,18.34
2017-05-11T00:22:28.156Z,18.29
2017-05-11T00:22:40.829Z,18.24
2017-05-11T00:22:53.542Z,18.26
2017-05-11T00:23:06.710Z,18.26
2017-05-11T00:23:19.950Z,18.27
2017-05-11T00:23:33.104Z,18.29
2017-05-11T00:23:45.802Z,18.29
2017-05-11T00:23:58.917Z,18.29
2017-05-11T00:24:12.053Z,18.26
2017-05-11T00:24:25.162Z,18.27
2017-05-11T00:24:38.297Z,18.27
2017-05-11T00:24:50.976Z,18.26
2017-05-11T00:25:04.190Z,18.24
2017-05-11T00:25:17.402Z,18.26
2017-05-11T00:25:30.067Z,18.31
2017-05-11T00:25:43.225Z,18.27
2017-05-11T00:25:56.408Z,18.23
2017-05-11T00:26:09.602Z,18.27
2017-05-11T00:26:22.742Z,18.23
2017-05-11T00:26:35.422Z,18.24
2017-05-11T00:26:48.622Z,18.19
2017-05-11T00:27:01.792Z,18.27
2017-05-11T00:27:14.979Z,18.29
2017-05-11T00:27:28.106Z,18.24
2017-05-11T00:27:40.810Z,18.29
2017-05-11T00:27:53.968Z,18.26
2017-05-11T00:28:07.145Z,18.26
2017-05-11T00:28:20.332Z,18.26
2017-05-11T00:28:33.550Z,18.26
2017-05-11T00:28:46.725Z,18.29
2017-05-11T00:28:59.840Z,18.26
2017-05-11T00:29:12.962Z,18.24
2017-05-11T00:29:26.170Z,18.27
2017-05-11T00:29:38.832Z,18.24
2017-05-11T00:29:51.989Z,18.27
2017-05-11T00:30:05.113Z,18.31
2017-05-11T00:30:18.255Z,18.29
2017-05-11T00:30:31.387Z,18.27
2017-05-11T00:30:44.561Z,18.27
2017-05-11T00:30:57.235Z,18.26
2017-05-11T00:31:10.405Z,18.27
2017-05-11T00:31:23.076Z,18.29
2017-05-11T00:31:36.256Z,18.24
2017-05-11T00:31:48.928Z,18.27
2017-05-11T00:32:01.591Z,18.26
2017-05-11T00:32:14.814Z,18.31
2017-05-11T00:32:27.933Z,18.29
2017-05-11T00:32:41.026Z,18.26
2017-05-11T00:32:54.222Z,18.24
2017-05-11T00:33:07.381Z,18.27
2017-05-11T00:33:20.541Z,18.31
2017-05-11T00:33:33.766Z,18.34
2017-05-11T00:33:46.650Z,18.29
2017-05-11T00:33:59.279Z,18.34
2017-05-11T00:34:12.138Z,18.34
2017-05-11T00:34:24.789Z,18.32
2017-05-11T00:34:37.942Z,18.31
2017-05-11T00:34:51.154Z,18.31
2017-05-11T00:35:04.297Z,18.34
2017-05-11T00:35:17.516Z,18.34
2017-05-11T00:35:30.158Z,18.36
2017-05-11T00:35:43.438Z,18.44
2017-05-11T00:35:56.632Z,18.42
2017-05-11T00:36:09.289Z,18.47
2017-05-11T00:36:22.493Z,18.41
2017-05-11T00:36:35.683Z,18.39
2017-05-11T00:36:48.825Z,18.35
2017-05-11T00:37:01.523Z,18.35
2017-05-11T00:37:14.628Z,18.36
2017-05-11T00:37:27.773Z,18.38
2017-05-11T00:37:40.924Z,18.39
2017-05-11T00:37:54.138Z,18.36
2017-05-11T00:38:06.298Z,18.44
2017-05-11T00:38:19.494Z,18.36
2017-05-11T00:38:32.614Z,18.49
2017-05-11T00:38:45.831Z,18.49
2017-05-11T00:38:58.928Z,18.47
2017-05-11T00:39:12.173Z,18.39
2017-05-11T00:39:25.357Z,18.5
2017-05-11T00:39:37.975Z,18.41
2017-05-11T00:39:50.618Z,18.41
2017-05-11T00:40:03.826Z,18.42
2017-05-11T00:40:16.471Z,18.5
2017-05-11T00:40:29.699Z,18.41
2017-05-11T00:40:42.880Z,18.42
2017-05-11T00:40:56.006Z,18.42
2017-05-11T00:41:09.131Z,18.41
2017-05-11T00:41:22.299Z,18.42
2017-05-11T00:41:35.477Z,18.45
2017-05-11T00:41:48.611Z,18.45
2017-05-11T00:42:01.836Z,18.45
2017-05-11T00:42:14.515Z,18.45
2017-05-11T00:42:27.710Z,18.49
2017-05-11T00:42:40.920Z,18.47
2017-05-11T00:42:54.145Z,18.42
2017-05-11T00:43:07.344Z,18.47
2017-05-11T00:43:20.501Z,18.39
2017-05-11T00:43:33.636Z,18.39
2017-05-11T00:43:46.747Z,18.42
2017-05-11T00:43:59.384Z,18.42
2017-05-11T00:44:12.554Z,18.42
2017-05-11T00:44:25.875Z,18.44
2017-05-11T00:44:39.019Z,18.39
2017-05-11T00:44:52.207Z,18.41
2017-05-11T00:45:05.347Z,18.47
2017-05-11T00:45:18.033Z,18.36
2017-05-11T00:45:31.191Z,18.41
2017-05-11T00:45:44.413Z,18.42
2017-05-11T00:45:57.560Z,18.45
2017-05-11T00:46:10.702Z,18.45
2017-05-11T00:46:23.405Z,18.44
2017-05-11T00:46:36.588Z,18.41
2017-05-11T00:46:49.772Z,18.42
2017-05-11T00:47:02.884Z,18.42
2017-05-11T00:47:16.078Z,18.42
2017-05-11T00:47:29.275Z,18.44
2017-05-11T00:47:42.483Z,18.5
2017-05-11T00:47:55.628Z,18.32
2017-05-11T00:48:08.751Z,18.39
2017-05-11T00:48:21.895Z,18.44
2017-05-11T00:48:35.079Z,18.42
2017-05-11T00:48:48.441Z,18.38
2017-05-11T00:49:01.622Z,18.42
2017-05-11T00:49:14.735Z,18.38
2017-05-11T00:49:27.337Z,18.38
2017-05-11T00:49:40.539Z,18.36
2017-05-11T00:49:53.198Z,18.47
2017-05-11T00:50:06.407Z,18.32
2017-05-11T00:50:19.064Z,18.31
2017-05-11T00:50:32.236Z,18.38
2017-05-11T00:50:44.895Z,18.36
2017-05-11T00:50:58.042Z,18.31
2017-05-11T00:51:11.253Z,18.34
2017-05-11T00:51:24.494Z,18.39
2017-05-11T00:51:37.653Z,18.32
2017-05-11T00:51:50.856Z,18.35
2017-05-11T00:52:03.519Z,18.32
2017-05-11T00:52:16.257Z,18.29
2017-05-11T00:52:28.929Z,18.29
2017-05-11T00:52:42.170Z,18.31
2017-05-11T00:52:55.454Z,18.27
2017-05-11T00:53:08.702Z,18.29
2017-05-11T00:53:22.203Z,18.29
2017-05-11T00:53:35.445Z,18.31
2017-05-11T00:53:48.690Z,18.26
2017-05-11T00:54:01.879Z,18.29
2017-05-11T00:54:15.018Z,18.27
2017-05-11T00:54:28.241Z,18.26
2017-05-11T00:54:41.930Z,18.27
2017-05-11T00:54:55.140Z,18.2
2017-05-11T00:55:08.635Z,18.21
2017-05-11T00:55:23.766Z,18.19
2017-05-11T00:55:36.982Z,18.23
2017-05-11T00:55:50.201Z,18.2
2017-05-11T00:56:03.768Z,18.17
2017-05-11T00:56:16.371Z,18.2
2017-05-11T00:56:30.871Z,18.2
2017-05-11T00:56:44.091Z,18.17
2017-05-11T00:56:57.320Z,18.2
2017-05-11T00:57:10.555Z,18.17
2017-05-11T00:57:23.732Z,18.14
2017-05-11T00:57:42.696Z,18.17
2017-05-11T00:57:55.395Z,18.16
2017-05-11T00:58:09.867Z,18.14
2017-05-11T00:58:23.358Z,18.11
2017-05-11T00:58:37.772Z,18.13
2017-05-11T00:58:51.110Z,18.21
2017-05-11T00:59:04.299Z,18.11
2017-05-11T00:59:17.514Z,18.05
2017-05-11T00:59:30.209Z,18.06
2017-05-11T00:59:43.368Z,18.08
2017-05-11T00:59:56.504Z,18.03
2017-05-11T01:00:09.164Z,18.08
2017-05-11T01:00:22.352Z,18.08
2017-05-11T01:00:35.507Z,18.05
2017-05-11T01:00:48.722Z,18.03
2017-05-11T01:01:01.959Z,18.02
2017-05-11T01:01:14.860Z,17.99
2017-05-11T01:01:28.682Z,17.98
2017-05-11T01:01:42.618Z,18.01
2017-05-11T01:01:55.343Z,18.08
2017-05-11T01:02:08.586Z,17.96
2017-05-11T01:02:21.835Z,17.98
2017-05-11T01:02:35.059Z,17.98
2017-05-11T01:02:47.800Z,17.98
2017-05-11T01:03:01.209Z,17.98
2017-05-11T01:03:14.450Z,18.01
2017-05-11T01:03:28.404Z,17.99
2017-05-11T01:03:41.859Z,17.95
2017-05-11T01:03:55.017Z,17.94
2017-05-11T01:04:14.347Z,17.98
2017-05-11T01:04:27.575Z,17.94
2017-05-11T01:04:40.726Z,18.01
2017-05-11T01:04:54.195Z,17.92
2017-05-11T01:05:07.538Z,17.96
2017-05-11T01:05:20.762Z,18.05
2017-05-11T01:05:33.419Z,17.98
2017-05-11T01:05:46.138Z,18.02
2017-05-11T01:05:59.328Z,17.92
2017-05-11T01:06:12.542Z,17.95
2017-05-11T01:06:25.238Z,17.94
2017-05-11T01:06:38.450Z,17.98
2017-05-11T01:06:51.083Z,17.94
2017-05-11T01:07:03.934Z,17.92
2017-05-11T01:07:17.381Z,17.87
2017-05-11T01:07:30.562Z,17.92
2017-05-11T01:07:43.821Z,17.88
2017-05-11T01:07:59.454Z,17.94
2017-05-11T01:08:12.631Z,17.95
2017-05-11T01:08:26.080Z,17.95
2017-05-11T01:08:39.251Z,17.92
2017-05-11T01:08:55.521Z,17.95
2017-05-11T01:09:08.746Z,17.87
2017-05-11T01:09:22.180Z,17.98
2017-05-11T01:09:35.330Z,17.92
2017-05-11T01:09:48.573Z,17.81
2017-05-11T01:10:02.032Z,17.84
2017-05-11T01:10:14.718Z,17.81
2017-05-11T01:10:26.853Z,17.83
2017-05-11T01:10:39.500Z,17.81
2017-05-11T01:10:52.668Z,17.84
2017-05-11T01:11:05.979Z,17.81
2017-05-11T01:11:19.166Z,17.88
2017-05-11T01:11:31.856Z,17.84
2017-05-11T01:11:44.597Z,17.81
2017-05-11T01:11:59.334Z,17.86
2017-05-11T01:12:11.949Z,17.81
2017-05-11T01:12:25.113Z,17.77
2017-05-11T01:12:38.335Z,17.84
2017-05-11T01:12:51.517Z,17.84
2017-05-11T01:13:04.652Z,17.76
2017-05-11T01:13:18.033Z,17.74
2017-05-11T01:13:31.317Z,17.86
2017-05-11T01:13:44.551Z,17.83
2017-05-11T01:14:00.765Z,17.86
2017-05-11T01:14:13.957Z,17.8
2017-05-11T01:14:27.126Z,17.81
2017-05-11T01:14:42.319Z,17.77
2017-05-11T01:14:55.784Z,17.74
2017-05-11T01:15:08.961Z,17.79
2017-05-11T01:15:22.127Z,17.77
2017-05-11T01:15:35.294Z,17.73
2017-05-11T01:15:49.696Z,17.76
2017-05-11T01:16:02.359Z,17.79
2017-05-11T01:16:16.884Z,17.71
2017-05-11T01:16:32.261Z,17.76
2017-05-11T01:16:45.522Z,17.71
2017-05-11T01:16:58.233Z,17.76
2017-05-11T01:17:21.661Z,17.73
2017-05-11T01:17:37.934Z,17.73
2017-05-11T01:17:51.114Z,17.74
2017-05-11T01:18:03.797Z,17.73
2017-05-11T01:18:43.612Z,17.79
2017-05-11T01:18:56.847Z,17.69
2017-05-11T01:19:10.156Z,17.73
2017-05-11T01:19:24.181Z,17.73
2017-05-11T01:19:38.607Z,17.69
2017-05-11T01:19:54.172Z,17.69
2017-05-11T01:20:12.000Z,17.77
2017-05-11T01:20:27.150Z,17.77
2017-05-11T01:20:41.586Z,17.69
2017-05-11T01:20:54.786Z,17.76
2017-05-11T01:21:09.002Z,17.76
2017-05-11T01:21:22.270Z,17.76
2017-05-11T01:21:35.468Z,17.74
2017-05-11T01:21:48.678Z,17.71
2017-05-11T01:22:02.354Z,17.76
2017-05-11T01:22:15.805Z,17.73
2017-05-11T01:22:31.751Z,17.8
2017-05-11T01:22:44.966Z,17.76
2017-05-11T01:22:59.345Z,17.76
2017-05-11T01:23:12.473Z,17.76
2017-05-11T01:23:25.688Z,17.71
2017-05-11T01:23:44.707Z,17.8
2017-05-11T01:24:02.909Z,17.84
2017-05-11T01:24:16.250Z,17.81
2017-05-11T01:24:32.153Z,17.73
2017-05-11T01:24:48.361Z,17.87
2017-05-11T01:25:02.333Z,17.83
2017-05-11T01:25:15.022Z,17.8
2017-05-11T01:25:28.208Z,17.84
2017-05-11T01:25:42.553Z,17.8
2017-05-11T01:25:57.021Z,17.81
2017-05-11T01:26:10.276Z,17.8
2017-05-11T01:26:23.891Z,17.92
2017-05-11T01:26:38.612Z,17.8
2017-05-11T01:26:51.842Z,17.86
2017-05-11T01:27:06.566Z,17.88
2017-05-11T01:27:19.752Z,17.81
2017-05-11T01:27:38.341Z,17.94
2017-05-11T01:27:51.757Z,17.94
2017-05-11T01:28:10.797Z,17.95
2017-05-11T01:28:23.498Z,17.98
2017-05-11T01:28:36.140Z,17.98
2017-05-11T01:28:48.829Z,17.94
2017-05-11T01:29:01.525Z,17.95
2017-05-11T01:29:18.503Z,18.02
2017-05-11T01:29:32.483Z,18.01
2017-05-11T01:29:57.009Z,17.98
2017-05-11T01:30:15.511Z,17.98
2017-05-11T01:30:28.743Z,18.06
2017-05-11T01:30:42.780Z,17.98
2017-05-11T01:30:56.051Z,17.98
2017-05-11T01:31:19.577Z,17.95
2017-05-11T01:32:06.252Z,18.02
2017-05-11T01:32:19.765Z,17.96
2017-05-11T01:32:49.010Z,18.06
2017-05-11T01:33:12.790Z,17.99
2017-05-11T01:33:26.874Z,17.98
2017-05-11T01:33:40.073Z,18.03
2017-05-11T01:33:53.806Z,18.03
2017-05-11T01:34:07.011Z,17.98
2017-05-11T01:34:20.384Z,18.01
2017-05-11T01:34:33.789Z,18.02
2017-05-11T01:34:45.909Z,18.06
2017-05-11T01:34:59.079Z,17.98
2017-05-11T01:35:12.269Z,18.11
2017-05-11T01:35:25.404Z,18.08
2017-05-11T01:35:38.629Z,17.99
2017-05-11T01:35:51.777Z,18.08
2017-05-11T01:36:04.471Z,18.08
2017-05-11T01:36:17.698Z,18.08
2017-05-11T01:36:30.801Z,17.99
2017-05-11T01:36:43.950Z,18.01
2017-05-11T01:36:57.170Z,18.02
2017-05-11T01:37:10.576Z,18.02
2017-05-11T01:37:23.761Z,18.1
2017-05-11T01:37:36.924Z,18.11
2017-05-11T01:37:50.105Z,18.08
2017-05-11T01:38:03.335Z,18.1
2017-05-11T01:38:16.025Z,18.11
2017-05-11T01:38:30.538Z,18.11
2017-05-11T01:38:45.019Z,18.11
2017-05-11T01:38:58.201Z,18.17
2017-05-11T01:39:11.384Z,18.11
2017-05-11T01:39:24.511Z,18.13
2017-05-11T01:39:37.632Z,18.06
2017-05-11T01:39:50.790Z,18.06
2017-05-11T01:40:03.442Z,18.11
2017-05-11T01:40:16.101Z,18.13
2017-05-11T01:40:29.284Z,18.19
2017-05-11T01:40:41.913Z,18.1
2017-05-11T01:40:55.041Z,18.17
2017-05-11T01:41:08.221Z,18.13
2017-05-11T01:41:20.865Z,18.13
2017-05-11T01:41:34.046Z,18.14
2017-05-11T01:41:47.200Z,18.11
2017-05-11T01:42:00.379Z,18.13
2017-05-11T01:42:13.568Z,18.11
2017-05-11T01:42:26.783Z,18.14
2017-05-11T01:42:39.994Z,18.11
2017-05-11T01:42:53.290Z,18.16
2017-05-11T01:43:07.203Z,18.16
2017-05-11T01:43:20.454Z,18.19
2017-05-11T01:43:33.607Z,18.16
2017-05-11T01:43:46.871Z,18.1
2017-05-11T01:44:00.038Z,18.17
2017-05-11T01:44:13.198Z,18.19
2017-05-11T01:44:26.310Z,18.16
2017-05-11T01:44:39.507Z,18.19
2017-05-11T01:44:52.639Z,18.2
2017-05-11T01:45:05.761Z,18.19
2017-05-11T01:45:17.906Z,18.21
2017-05-11T01:45:31.047Z,18.2
2017-05-11T01:45:44.259Z,18.14
2017-05-11T01:45:57.428Z,18.19
2017-05-11T01:46:10.798Z,18.17
2017-05-11T01:46:24.000Z,18.13
2017-05-11T01:46:37.334Z,18.17
2017-05-11T01:46:52.842Z,18.13
2017-05-11T01:47:08.051Z,18.21
2017-05-11T01:47:21.192Z,18.2
2017-05-11T01:47:37.386Z,18.14
2017-05-11T01:47:52.015Z,18.14
2017-05-11T01:48:07.203Z,18.16
2017-05-11T01:48:28.350Z,18.14
2017-05-11T01:48:47.606Z,18.16
2017-05-11T01:49:04.099Z,18.14
2017-05-11T01:49:17.733Z,18.19
2017-05-11T01:49:31.181Z,18.2
2017-05-11T01:49:44.941Z,18.23
2017-05-11T01:49:57.574Z,18.19
2017-05-11T01:50:10.202Z,18.2
2017-05-11T01:50:23.482Z,18.2
2017-05-11T01:50:36.678Z,18.2
2017-05-11T01:50:49.849Z,18.17
2017-05-11T01:51:03.188Z,18.23
2017-05-11T01:51:17.000Z,18.14
2017-05-11T01:51:30.215Z,18.23
2017-05-11T01:51:43.416Z,18.2
2017-05-11T01:51:56.613Z,18.17
2017-05-11T01:52:09.857Z,18.16
2017-05-11T01:52:23.046Z,18.21
2017-05-11T01:53:10.221Z,18.19
2017-05-11T01:53:23.739Z,18.2
2017-05-11T01:53:38.100Z,18.26
2017-05-11T01:53:51.279Z,18.2
2017-05-11T01:54:08.309Z,18.21
2017-05-11T01:54:21.453Z,18.21
2017-05-11T01:54:39.686Z,18.19
2017-05-11T01:54:52.877Z,18.27
2017-05-11T01:55:21.371Z,18.27
2017-05-11T01:55:38.857Z,18.21
2017-05-11T01:55:53.215Z,18.27
2017-05-11T01:56:05.919Z,18.2
2017-05-11T01:56:19.747Z,18.2
2017-05-11T01:56:33.024Z,18.23
2017-05-11T01:56:46.931Z,18.26
2017-05-11T01:57:00.112Z,18.26
2017-05-11T01:57:13.547Z,18.29
2017-05-11T01:57:27.432Z,18.29
2017-05-11T01:57:41.441Z,18.27
2017-05-11T01:57:54.676Z,18.24
2017-05-11T01:58:12.143Z,18.27
2017-05-11T01:58:31.134Z,18.24
2017-05-11T01:58:47.382Z,18.21
2017-05-11T01:59:06.441Z,18.27
2017-05-11T01:59:19.610Z,18.27
2017-05-11T02:00:17.916Z,18.24
2017-05-11T02:00:31.167Z,18.27
2017-05-11T02:00:45.907Z,18.29
2017-05-11T02:01:04.224Z,18.26
2017-05-11T02:01:18.095Z,18.23
2017-05-11T02:01:31.479Z,18.27
2017-05-11T02:01:44.887Z,18.31
2017-05-11T02:01:58.072Z,18.26
2017-05-11T02:02:10.772Z,18.29
2017-05-11T02:02:25.340Z,18.26
2017-05-11T02:02:37.964Z,18.26
2017-05-11T02:02:51.106Z,18.23
2017-05-11T02:03:04.252Z,18.31
2017-05-11T02:03:17.397Z,18.27
2017-05-11T02:03:30.600Z,18.29
2017-05-11T02:03:43.233Z,18.24
2017-05-11T02:04:01.295Z,18.27
2017-05-11T02:04:14.481Z,18.27
2017-05-11T02:04:27.375Z,18.31
2017-05-11T02:04:40.528Z,18.23
2017-05-11T02:04:53.199Z,18.31
2017-05-11T02:05:05.944Z,18.23
2017-05-11T02:05:19.295Z,18.31
2017-05-11T02:05:32.666Z,18.23
2017-05-11T02:05:45.780Z,18.24
2017-05-11T02:05:59.234Z,18.26
2017-05-11T02:06:12.499Z,18.27
2017-05-11T02:06:25.945Z,18.24
2017-05-11T02:06:39.153Z,18.24
2017-05-11T02:06:51.785Z,18.29
2017-05-11T02:07:04.947Z,18.27
2017-05-11T02:07:18.165Z,18.24
2017-05-11T02:07:30.837Z,18.27
2017-05-11T02:07:44.032Z,18.23
2017-05-11T02:07:57.281Z,18.27
2017-05-11T02:08:10.495Z,18.26
2017-05-11T02:08:23.201Z,18.29
2017-05-11T02:08:36.420Z,18.29
2017-05-11T02:08:49.129Z,18.32
2017-05-11T02:09:01.921Z,18.29
2017-05-11T02:09:15.072Z,18.35
2017-05-11T02:09:28.342Z,18.32
2017-05-11T02:09:41.538Z,18.32
2017-05-11T02:09:54.696Z,18.38
2017-05-11T02:10:08.086Z,18.31
2017-05-11T02:10:20.827Z,18.36
2017-05-11T02:10:33.574Z,18.36
2017-05-11T02:10:46.735Z,18.36
2017-05-11T02:10:59.915Z,18.36
2017-05-11T02:11:14.122Z,18.36
2017-05-11T02:11:28.019Z,18.36
2017-05-11T02:11:41.278Z,18.34
2017-05-11T02:11:55.060Z,18.29
2017-05-11T02:12:08.507Z,18.35
2017-05-11T02:12:21.675Z,18.42
2017-05-11T02:12:34.309Z,18.39
2017-05-11T02:12:47.557Z,18.38
2017-05-11T02:13:00.683Z,18.39
2017-05-11T02:13:13.331Z,18.41
2017-05-11T02:13:26.307Z,18.42
2017-05-11T02:13:39.499Z,18.35
2017-05-11T02:13:53.005Z,18.36
2017-05-11T02:14:06.181Z,18.42
2017-05-11T02:14:19.339Z,18.31
2017-05-11T02:14:32.510Z,18.38
2017-05-11T02:14:45.748Z,18.38
2017-05-11T02:14:58.894Z,18.36
2017-05-11T02:15:11.995Z,18.42
2017-05-11T02:15:24.572Z,18.38
2017-05-11T02:15:37.721Z,18.38
2017-05-11T02:15:49.868Z,18.38
2017-05-11T02:16:02.495Z,18.35
2017-05-11T02:16:15.139Z,18.38
2017-05-11T02:16:28.301Z,18.39
2017-05-11T02:16:40.972Z,18.45
2017-05-11T02:16:54.112Z,18.36
2017-05-11T02:17:07.229Z,18.38
2017-05-11T02:17:20.372Z,18.42
2017-05-11T02:17:33.512Z,18.42
2017-05-11T02:17:46.694Z,18.35
2017-05-11T02:17:59.369Z,18.41
2017-05-11T02:18:12.095Z,18.35
2017-05-11T02:18:25.262Z,18.38
2017-05-11T02:18:37.906Z,18.42
2017-05-11T02:18:51.127Z,18.38
2017-05-11T02:19:03.780Z,18.39
2017-05-11T02:19:16.957Z,18.39
2017-05-11T02:19:30.321Z,18.42
2017-05-11T02:19:43.520Z,18.44
2017-05-11T02:19:56.706Z,18.38
2017-05-11T02:20:09.439Z,18.35
2017-05-11T02:20:22.551Z,18.42
2017-05-11T02:20:35.714Z,18.39
2017-05-11T02:20:48.880Z,18.36
2017-05-11T02:21:02.057Z,18.39
2017-05-11T02:21:15.212Z,18.44
2017-05-11T02:21:28.414Z,18.34
2017-05-11T02:21:41.597Z,18.34
2017-05-11T02:21:54.747Z,18.38
2017-05-11T02:22:07.885Z,18.32
2017-05-11T02:22:20.526Z,18.31
2017-05-11T02:22:33.737Z,18.38
2017-05-11T02:22:45.918Z,18.29
2017-05-11T02:22:59.111Z,18.39
2017-05-11T02:23:11.742Z,18.32
2017-05-11T02:23:24.922Z,18.31
2017-05-11T02:23:38.055Z,18.32
2017-05-11T02:23:51.211Z,18.38
2017-05-11T02:24:04.356Z,18.35
2017-05-11T02:24:17.546Z,18.29
2017-05-11T02:24:30.690Z,18.29
2017-05-11T02:24:43.825Z,18.26
2017-05-11T02:24:56.992Z,18.34
2017-05-11T02:25:09.654Z,18.32
2017-05-11T02:25:22.774Z,18.35
2017-05-11T02:25:35.898Z,18.32
2017-05-11T02:25:49.139Z,18.29
2017-05-11T02:26:02.291Z,18.32
2017-05-11T02:26:15.437Z,18.27
2017-05-11T02:26:28.565Z,18.29
2017-05-11T02:26:41.727Z,18.29
2017-05-11T02:26:54.912Z,18.26
2017-05-11T02:27:08.127Z,18.27
2017-05-11T02:27:21.360Z,18.2
2017-05-11T02:27:34.554Z,18.29
2017-05-11T02:27:47.756Z,18.19
2017-05-11T02:28:00.381Z,18.27
2017-05-11T02:28:13.569Z,18.24
2017-05-11T02:28:26.703Z,18.26
2017-05-11T02:28:39.386Z,18.26
2017-05-11T02:28:52.576Z,18.24
2017-05-11T02:29:05.211Z,18.2
2017-05-11T02:29:18.456Z,18.17
2017-05-11T02:29:31.072Z,18.19
2017-05-11T02:29:44.235Z,18.24
2017-05-11T02:29:57.370Z,18.17
2017-05-11T02:30:10.576Z,18.21
2017-05-11T02:30:23.254Z,18.2
2017-05-11T02:30:36.350Z,18.14
2017-05-11T02:30:49.433Z,18.17
2017-05-11T02:31:02.610Z,18.24
2017-05-11T02:31:15.822Z,18.2
2017-05-11T02:31:28.963Z,18.19
2017-05-11T02:31:42.161Z,18.2
2017-05-11T02:31:55.322Z,18.19
2017-05-11T02:32:08.467Z,18.13
2017-05-11T02:32:21.600Z,18.16
2017-05-11T02:32:34.756Z,18.11
2017-05-11T02:32:47.902Z,18.21
2017-05-11T02:33:01.093Z,18.14
2017-05-11T02:33:13.745Z,18.14
2017-05-11T02:33:26.940Z,18.13
2017-05-11T02:33:40.125Z,18.13
2017-05-11T02:33:52.801Z,18.1
2017-05-11T02:34:05.497Z,18.17
2017-05-11T02:34:18.160Z,18.08
2017-05-11T02:34:31.563Z,18.17
2017-05-11T02:34:44.722Z,18.16
2017-05-11T02:34:57.977Z,18.13
2017-05-11T02:35:11.160Z,18.06
2017-05-11T02:35:24.341Z,18.13
2017-05-11T02:35:37.599Z,18.13
2017-05-11T02:35:50.735Z,18.08
2017-05-11T02:36:03.914Z,18.16
2017-05-11T02:36:17.025Z,18.13
2017-05-11T02:36:30.231Z,18.16
2017-05-11T02:36:43.414Z,18.1
2017-05-11T02:36:56.640Z,18.13
2017-05-11T02:37:09.351Z,18.13
2017-05-11T02:37:22.566Z,18.1
2017-05-11T02:37:35.776Z,18.13
2017-05-11T02:37:49.855Z,18.14
2017-05-11T02:38:07.350Z,18.14
2017-05-11T02:38:20.532Z,18.11
2017-05-11T02:38:33.697Z,18.08
2017-05-11T02:38:46.874Z,18.11
2017-05-11T02:39:00.128Z,18.05
2017-05-11T02:39:14.760Z,18.11
2017-05-11T02:39:27.478Z,18.11
2017-05-11T02:39:40.629Z,18.03
2017-05-11T02:39:53.316Z,18.01
2017-05-11T02:40:06.470Z,18.02
2017-05-11T02:40:18.615Z,17.98
2017-05-11T02:40:31.829Z,18.1
2017-05-11T02:40:44.941Z,18.08
2017-05-11T02:40:58.099Z,17.98
2017-05-11T02:41:11.227Z,17.99
2017-05-11T02:41:24.405Z,17.98
2017-05-11T02:41:37.575Z,18.02
2017-05-11T02:41:50.346Z,18.01
2017-05-11T02:42:03.513Z,18.05
2017-05-11T02:42:16.240Z,18.03
2017-05-11T02:42:29.466Z,18.05
2017-05-11T02:42:42.649Z,18.01
2017-05-11T02:42:55.286Z,18.05
2017-05-11T02:43:08.469Z,18.02
2017-05-11T02:43:21.118Z,18.03
2017-05-11T02:43:33.741Z,17.99
2017-05-11T02:43:46.889Z,18.02
2017-05-11T02:44:00.031Z,17.95
2017-05-11T02:44:13.194Z,17.99
2017-05-11T02:44:26.329Z,17.94
2017-05-11T02:44:39.472Z,17.99
2017-05-11T02:44:52.636Z,17.98
2017-05-11T02:45:05.314Z,18.02
2017-05-11T02:45:18.036Z,17.98
2017-05-11T02:45:31.198Z,18.03
2017-05-11T02:45:44.332Z,17.99
2017-05-11T02:45:57.439Z,17.98
2017-05-11T02:46:10.603Z,17.98
2017-05-11T02:46:23.227Z,17.98
2017-05-11T02:46:36.406Z,17.95
2017-05-11T02:46:49.138Z,17.96
2017-05-11T02:47:02.384Z,18.01
2017-05-11T02:47:15.576Z,17.99
2017-05-11T02:47:28.765Z,17.98
2017-05-11T02:47:41.990Z,17.98
2017-05-11T02:47:55.247Z,18.01
2017-05-11T02:48:07.919Z,17.95
2017-05-11T02:48:21.049Z,17.99
2017-05-11T02:48:34.186Z,17.99
2017-05-11T02:48:47.390Z,18.05
2017-05-11T02:49:00.779Z,17.98
2017-05-11T02:49:14.011Z,18.02
2017-05-11T02:49:27.158Z,18.01
2017-05-11T02:49:40.523Z,17.99
2017-05-11T02:49:53.730Z,18.01
2017-05-11T02:50:06.409Z,17.99
2017-05-11T02:50:19.063Z,17.98
2017-05-11T02:50:32.216Z,18.02
2017-05-11T02:50:45.334Z,17.99
2017-05-11T02:50:57.990Z,18.02
2017-05-11T02:51:11.118Z,18.02
2017-05-11T02:51:24.304Z,18.03
2017-05-11T02:51:37.488Z,18.03
2017-05-11T02:51:50.161Z,17.99
2017-05-11T02:52:02.317Z,17.98
2017-05-11T02:52:14.944Z,18.06
2017-05-11T02:52:28.073Z,18.03
2017-05-11T02:52:41.244Z,18.1
2017-05-11T02:52:54.406Z,17.99
2017-05-11T02:53:07.551Z,18.06
2017-05-11T02:53:20.740Z,18.05
2017-05-11T02:53:33.963Z,17.98
2017-05-11T02:53:47.109Z,17.98
2017-05-11T02:54:00.289Z,18.03
2017-05-11T02:54:13.470Z,18.01
2017-05-11T02:54:26.630Z,18.03
2017-05-11T02:54:39.750Z,17.98
2017-05-11T02:54:52.409Z,18.03
2017-05-11T02:55:05.516Z,18.05
2017-05-11T02:55:18.694Z,18.01
2017-05-11T02:55:31.902Z,18.1
2017-05-11T02:55:45.086Z,18.05